• Join FlightAware (Why Join?)
  • Login
  • US Flag 
01:36PM EDT


 

Airport Tracker/Info


-or-


 

Live Flight TrackerFlight Track Log ✈ UAL3732 ✈ 05-Sep-2013 ✈ KBOS - KORD

Flight Track Log - Related Links

Times and Time Zones

All times are in EDT time to prevent confusion due to time zone crossing. See the UAL3732 flight status page for this flight to view local times or setup timezone preferences in your user account.

Time Position Orientation Groundspeed Altitude Reporting Facility
EDT Latitude Longitude Course Direction KTS MPH feet Rate Location/Type
02:36PM 42.3667 -70.9833 90° East 167 192 700  Level KA90
02:37PM 42.3667 -70.9167 90° East 184 212 2,300 1,800 Climbing KA90
02:39PM 42.3900 -70.8250 71° East 216 249 4,800 1,980 Climbing Boston Center
02:40PM 42.4494 -70.7664 36° Northeast 259 298 6,800 2,160 Climbing Boston Center
02:41PM 42.5189 -70.8017 339° North 267 307 9,300 2,460 Climbing Boston Center
02:42PM 42.5678 -70.8933 306° West 272 313 11,900 2,220 Climbing Boston Center
02:43PM 42.6189 -70.9833 308° West 304 350 13,900 1,680 Climbing Boston Center
02:44PM 42.6733 -71.0800 307° West 323 372 15,400 1,980 Climbing Boston Center
02:45PM 42.6992 -71.2058 286° West 320 368 17,900 2,100 Climbing Boston Center
02:46PM 42.7136 -71.3253 279° West 318 366 19,700 1,620 Climbing Boston Center
02:47PM 42.7272 -71.4481 279° West 323 372 21,300 1,500 Climbing Boston Center
02:48PM 42.7419 -71.5797 279° West 338 389 22,900 1,500 Climbing Boston Center
02:49PM 42.7553 -71.7092 278° West 344 396 24,500 1,380 Climbing Boston Center
02:50PM 42.7703 -71.8381 279° West 346 398 25,800 1,440 Climbing Boston Center
02:51PM 42.7856 -71.9683 279° West 349 402 27,500 1,200 Climbing Boston Center
02:52PM 42.7986 -72.0981 278° West 347 399 28,300 840 Climbing Boston Center
02:53PM 42.8139 -72.2314 279° West 355 409 29,300 960 Climbing Boston Center
02:54PM 42.8311 -72.3908 278° West 361 415 30,400 840 Climbing Boston Center
02:55PM 42.8447 -72.5289 278° West 368 423 31,000 840 Climbing Boston Center
02:56PM 42.8594 -72.6750 278° West 373 429 32,200 960 Climbing Boston Center
02:57PM 42.8722 -72.8078 278° West 369 425 33,000 720 Climbing Boston Center
02:58PM 42.8881 -72.9661 278° West 375 432 33,700 480 Climbing Boston Center
02:59PM 42.9003 -73.0914 278° West 382 440 34,000 120 Climbing Boston Center
03:00PM 42.9147 -73.2403 278° West 393 452 34,000  Level Boston Center
03:01PM 42.9325 -73.4267 277° West 407 468 34,000  Level Boston Center
03:02PM 42.9467 -73.5831 277° West 413 475 34,000  Level Boston Center
03:03PM 42.9622 -73.7350 278° West 409 471 34,000  Level Boston Center
03:04PM 42.9744 -73.8839 276° West 397 457 34,000  Level Boston Center
03:05PM 42.9883 -74.0339 277° West 400 460 34,000  Level Boston Center
03:06PM 43.0028 -74.1861 277° West 404 465 34,000  Level Boston Center
03:07PM 43.0147 -74.3397 276° West 407 468 34,000 480 Level Boston Center
03:08PM 43.0281 -74.4931 277° West 407 468 35,100 1,080 Climbing Boston Center
03:09PM 43.0411 -74.6439 277° West 400 460 36,200 1,020 Climbing Boston Center
03:10PM 43.0558 -74.8158 277° West 382 440 37,300 720 Climbing Boston Center
03:11PM 43.0667 -74.9606 276° West 380 437 37,800 300 Climbing Boston Center
03:12PM 43.0772 -75.1031 276° West 376 433 38,000 60 Climbing Boston Center
03:14PM 43.0897 -75.2497 277° West 383 441 38,000  Level Boston Center
03:15PM 43.1017 -75.4003 276° West 393 452 38,000  Level Boston Center
03:16PM 43.1139 -75.5525 276° West 398 458 38,000  Level Boston Center
03:17PM 43.1261 -75.7075 276° West 405 466 38,000  Level Boston Center
03:18PM 43.1375 -75.8631 276° West 409 471 38,000  Level Boston Center
03:19PM 43.1481 -76.0158 275° West 405 466 38,000  Level Boston Center
03:20PM 43.1592 -76.1692 276° West 404 465 38,000  Level Boston Center
03:21PM 43.1611 -76.3522 271° West 403 464 38,000  Level Boston Center
03:21PM 43.1619 -76.4558 271° West 406 467 38,000  Level Cleveland Center
03:22PM 43.1608 -76.6067 269° West 406 467 38,000  Level Cleveland Center
03:23PM 43.1594 -76.7436 269° West 406 467 38,000  Level Cleveland Center
03:24PM 43.1603 -76.8972 270° West 406 467 38,000  Level Cleveland Center
03:25PM 43.1586 -77.0483 269° West 406 467 38,000  Level Cleveland Center
03:26PM 43.1569 -77.1992 269° West 406 467 38,000  Level Cleveland Center
03:27PM 43.1572 -77.3528 270° West 406 467 38,000  Level Cleveland Center
03:28PM 43.1550 -77.5039 269° West 406 467 38,000  Level Cleveland Center
03:29PM 43.1525 -77.6547 269° West 406 467 38,000  Level Cleveland Center
03:30PM 43.1522 -77.8086 270° West 406 467 38,000  Level Cleveland Center
03:31PM 43.1494 -77.9594 269° West 406 467 38,000  Level Cleveland Center
03:32PM 43.1467 -78.1133 269° West 406 467 38,000  Level Cleveland Center
03:33PM 43.1456 -78.2642 269° West 406 467 38,000  Level Cleveland Center
03:34PM 43.1422 -78.4122 268° West 401 461 38,000  Level Cleveland Center
03:35PM 43.1386 -78.5603 268° West 401 461 38,000  Level Cleveland Center
03:37PM 43.1308 -78.8450 268° West 389 448 38,000  Level Cleveland Center
03:38PM 43.1167 -79.0000 263° West 380 437 38,000  Level Toronto Center
03:39PM 43.1167 -79.1333 270° West 380 437 38,000  Level Toronto Center
03:40PM 43.1000 -79.2833 261° West 390 449 38,000  Level Toronto Center
03:41PM 43.1000 -79.4333 270° West 390 449 38,000  Level Toronto Center
03:42PM 43.1000 -79.5833 270° West 400 460 38,000  Level Toronto Center
03:43PM 43.0833 -79.7167 260° West 400 460 38,000  Level Toronto Center
03:44PM 43.0833 -79.8833 270° West 400 460 38,000  Level Toronto Center
03:45PM 43.0833 -80.0500 270° West 400 460 38,000  Level Toronto Center
03:46PM 43.0667 -80.2000 261° West 400 460 38,000  Level Toronto Center
03:47PM 43.0667 -80.3333 270° West 400 460 38,000  Level Toronto Center
03:48PM 43.0667 -80.5000 270° West 410 472 38,000  Level Toronto Center
03:49PM 43.0500 -80.6667 262° West 400 460 38,000  Level Toronto Center
03:50PM 43.0500 -80.8000 270° West 400 460 38,000  Level Toronto Center
03:51PM 43.0333 -80.9500 261° West 400 460 38,000  Level Toronto Center
03:52PM 43.0167 -81.1000 261° West 400 460 38,000  Level Toronto Center
03:53PM 43.0167 -81.2500 270° West 400 460 38,000  Level Toronto Center
03:54PM 43.0167 -81.4167 270° West 400 460 38,000  Level Toronto Center
03:55PM 43.0167 -81.5667 270° West 400 460 38,000  Level Toronto Center
03:56PM 43.0167 -81.7000 270° West 400 460 38,000  Level Toronto Center
03:57PM 43.0167 -81.8667 270° West 400 460 38,000  Level Toronto Center
03:58PM 43.0000 -82.0000 260° West 400 460 38,000  Level Toronto Center
03:59PM 43.0000 -82.1667 270° West 400 460 38,000  Level Toronto Center
04:00PM 43.0000 -82.3167 270° West 410 472 38,000  Level Toronto Center
04:01PM 43.0000 -82.4833 270° West 410 472 38,000 -420 Level Toronto Center
04:02PM 42.9833 -82.6500 262° West 420 483 37,200 -780 Descending Toronto Center
04:03PM 42.9969 -82.7150 286° West 413 475 36,900 -780 Descending Cleveland Center
04:04PM 42.9875 -82.8764 265° West 425 489 36,100 -840 Descending Cleveland Center
04:05PM 42.9822 -83.0408 268° West 430 495 35,300 -840 Descending Cleveland Center
04:06PM 42.9722 -83.2050 265° West 435 501 34,500 -840 Descending Cleveland Center
04:07PM 42.9622 -83.3664 265° West 435 501 33,700 -840 Descending Cleveland Center
04:08PM 42.9519 -83.5333 265° West 435 501 32,900 -840 Descending Cleveland Center
04:09PM 42.9433 -83.6975 266° West 445 512 32,100 -480 Descending Cleveland Center
04:10PM 42.9306 -83.8614 264° West 445 512 32,000 -60 Descending Cleveland Center
04:11PM 42.9214 -84.0281 266° West 445 512 32,000  Level Cleveland Center
04:12PM 42.9103 -84.1919 265° West 445 512 32,000  Level Cleveland Center
04:14PM 42.8908 -84.4928 265° West 441 507 32,000  Level Chicago Center
04:15PM 42.8772 -84.6583 264° West 442 509 32,000  Level Chicago Center
04:16PM 42.8600 -84.8247 262° West 442 509 32,000  Level Chicago Center
04:17PM 42.8386 -85.0264 262° West 448 516 32,000 -300 Level Chicago Center
04:18PM 42.8206 -85.1950 262° West 451 519 31,400 -540 Descending Chicago Center
04:19PM 42.8017 -85.3656 261° West 453 521 31,000 -720 Descending Chicago Center
04:20PM 42.7803 -85.5372 260° West 459 528 30,000 -1,080 Descending Chicago Center
04:21PM 42.7478 -85.7122 256° West 472 543 28,800 -1,260 Descending Chicago Center
04:22PM 42.7181 -85.8778 256° West 453 521 27,400 -1,980 Descending Chicago Center
04:23PM 42.6894 -86.0378 256° West 435 501 24,800 -3,120 Descending Chicago Center
04:24PM 42.6544 -86.2311 256° West 437 503 21,000 -3,060 Descending Chicago Center
04:25PM 42.6239 -86.3903 255° West 435 501 18,500 -2,040 Descending Chicago Center
04:26PM 42.5964 -86.5406 256° West 415 478 16,800 -1,800 Descending Chicago Center
04:27PM 42.5708 -86.6794 256° West 385 443 14,800 -1,920 Descending Chicago Center
04:28PM 42.5381 -86.8128 252° West 375 432 12,800 -1,980 Descending Chicago Center
04:29PM 42.5042 -86.9411 250° West 363 418 10,800 -1,380 Descending Chicago Center
04:30PM 42.4619 -87.0958 250° West 367 422 10,000 -420 Descending Chicago Center
04:31PM 42.4258 -87.2264 249° West 373 429 10,000  Level Chicago Center
04:32PM 42.3900 -87.3567 250° West 372 428 10,000  Level Chicago Center
04:33PM 42.3556 -87.4783 249° West 371 427 10,000  Level Chicago Center
04:35PM 42.2767 -87.6047 230° Southwest 384 442 10,000  Level Chicago Center
04:36PM 42.1928 -87.6900 217° Southwest 381 438 10,000 -60 Level Chicago Center
04:37PM 42.1231 -87.7631 218° Southwest 316 364 9,900 -600 Descending Chicago Center
04:37PM 42.1000 -87.8000 230° Southwest 275 316 9,100 -1,620 Descending Chicago TRACON
04:38PM 42.1000 -87.9167 270° West 286 329 7,400 -1,020 Descending Chicago TRACON
04:39PM 42.1000 -88.0167 270° West 239 275 7,000 -600 Descending Chicago TRACON
04:40PM 42.0833 -88.1000 255° West 223 257 6,300 -1,020 Descending Chicago TRACON
04:41PM 42.0806 -88.1386 264° West 226 260 5,500 -1,680 Descending Chicago Center
04:42PM 42.0294 -88.1478 188° South 239 275 3,700 -1,200 Descending Chicago Center
04:43PM 42.0011 -88.0775 118° Southeast 227 261 3,000 -900 Descending Chicago Center
04:44PM 41.9844 -88.0153 110° East 201 231 1,900 -900 Descending Chicago Center
04:45PM 41.9836 -87.9533 91° East 156 180 1,200 -720 Descending Chicago Center
04:47PM 41.9817 -87.9067 180° South  Level Estimated